Time;durP1;ratioP1;P1;durP2;ratioP2;P2;SDS_P1;SDS_P2;PMS_P1;PMS_P2;Temp;Humidity;BMP_temperature;BMP_pressure;BME280_temperature;BME280_humidity;BME280_pressure;Samples;Min_cycle;Max_cycle;Signal;HPM_P1;HPM_P2
2021/11/30 00:01:44;;;;;;;19.17;8.75;;;;;;;11.63;68.74;100493.97;5034104;28;20071;-93
2021/11/30 00:04:11;;;;;;;14.85;8.38;;;;;;;11.81;68.16;100490.06;5034338;28;20021;-93
2021/11/30 00:06:36;;;;;;;13.82;7.70;;;;;;;11.97;68.02;100494.25;5029828;28;20049;-93
2021/11/30 00:09:22;;;;;;;11.32;7.03;;;;;;;11.82;68.26;100489.09;5033884;28;20064;-93
2021/11/30 00:11:48;;;;;;;10.10;6.93;;;;;;;11.74;68.65;100486.19;5034305;28;20057;-94
2021/11/30 00:14:14;;;;;;;10.85;6.35;;;;;;;11.88;68.60;100491.28;5032754;28;20022;-94
2021/11/30 00:16:39;;;;;;;12.18;6.45;;;;;;;11.80;68.83;100487.53;5032555;28;20022;-93
2021/11/30 00:19:05;;;;;;;17.00;6.97;;;;;;;11.89;68.65;100490.38;5033091;28;20399;-95
2021/11/30 00:21:30;;;;;;;10.00;5.85;;;;;;;12.19;67.72;100483.81;5033265;28;20032;-92
2021/11/30 00:23:56;;;;;;;12.05;5.60;;;;;;;11.98;68.28;100488.03;5033184;28;20040;-93
2021/11/30 00:26:21;;;;;;;10.25;5.10;;;;;;;12.21;67.79;100489.00;5033377;28;20037;-93
2021/11/30 00:28:47;;;;;;;8.38;3.70;;;;;;;12.18;67.98;100487.41;5033501;28;20029;-92
2021/11/30 00:31:13;;;;;;;7.60;4.03;;;;;;;12.21;67.48;100487.19;5033740;28;20549;-92
2021/11/30 00:33:38;;;;;;;6.18;3.67;;;;;;;12.22;67.56;100494.16;5033870;28;20459;-94
2021/11/30 00:36:04;;;;;;;6.72;3.10;;;;;;;11.98;68.60;100482.75;5033786;28;20048;-93
2021/11/30 00:38:30;;;;;;;6.93;3.17;;;;;;;11.89;68.83;100498.28;5033097;28;20060;-94
2021/11/30 00:40:56;;;;;;;3.65;2.22;;;;;;;12.18;68.39;100487.41;5037327;28;20032;-93
2021/11/30 00:43:23;;;;;;;2.88;2.40;;;;;;;12.42;67.22;100494.44;5036434;28;20033;-93
2021/11/30 00:45:57;;;;;;;7.03;3.30;;;;;;;12.49;67.05;100496.50;5037331;28;20459;-93
2021/11/30 00:48:29;;;;;;;5.13;2.30;;;;;;;12.42;67.45;100504.97;5037239;28;20018;-94
2021/11/30 00:50:54;;;;;;;4.65;2.08;;;;;;;12.59;67.00;100504.56;5037894;28;20036;-94
2021/11/30 00:53:20;;;;;;;6.93;2.10;;;;;;;12.14;67.78;100507.00;5037111;28;20029;-96
2021/11/30 00:55:46;;;;;;;5.13;1.75;;;;;;;12.53;66.96;100501.56;5037045;28;20022;-94
2021/11/30 00:58:11;;;;;;;4.10;1.65;;;;;;;12.66;66.84;100512.88;5037981;28;20091;-96
2021/11/30 01:00:37;;;;;;;3.95;1.38;;;;;;;12.47;67.02;100510.75;5041538;28;20021;-96
2021/11/30 01:03:06;;;;;;;3.53;1.90;;;;;;;12.38;67.45;100511.44;5055061;28;20041;-96
2021/11/30 01:05:33;;;;;;;1.98;1.40;;;;;;;12.53;66.74;100491.03;5067574;23;20060;-96
2021/11/30 01:07:58;;;;;;;3.80;1.23;;;;;;;12.67;66.16;100501.34;5072147;23;20045;-96
2021/11/30 01:10:24;;;;;;;2.35;1.00;;;;;;;12.72;65.82;100493.09;5046789;28;20064;-95
2021/11/30 01:15:19;;;;;;;2.80;0.93;;;;;;;12.43;66.45;100496.97;5039276;28;20046;-96
2021/11/30 01:17:45;;;;;;;3.75;1.48;;;;;;;12.20;67.02;100495.19;5045097;28;20029;-95
2021/11/30 01:20:11;;;;;;;3.63;1.60;;;;;;;12.50;66.09;100494.75;5052641;28;20036;-96
2021/11/30 01:22:38;;;;;;;9.80;1.60;;;;;;;12.79;65.67;100497.78;5076287;23;20080;-96
2021/11/30 01:25:05;;;;;;;4.65;1.40;;;;;;;13.02;64.41;100493.41;5059758;28;20028;-96
2021/11/30 01:32:43;;;;;;;4.78;1.42;;;;;;;12.96;64.95;100509.69;5174556;23;20086;-96
2021/11/30 01:35:10;;;;;;;3.22;1.88;;;;;;;12.99;65.25;100509.44;5562226;23;20026;-96
2021/11/30 01:37:37;;;;;;;5.80;2.28;;;;;;;12.98;65.30;100502.50;5086115;23;20041;-96
2021/11/30 01:40:05;;;;;;;3.45;2.20;;;;;;;13.01;64.87;100493.53;5044107;28;20033;-96
2021/11/30 01:42:32;;;;;;;6.18;2.58;;;;;;;12.97;65.49;100510.53;5042001;28;20026;-94
2021/11/30 01:45:09;;;;;;;4.07;2.60;;;;;;;12.98;65.91;100512.22;5035113;28;20025;-94
2021/11/30 01:47:52;;;;;;;6.35;2.95;;;;;;;13.09;65.04;100507.81;5038299;28;20029;-96
2021/11/30 01:50:18;;;;;;;7.30;3.22;;;;;;;13.15;65.03;100505.63;5035298;28;20018;-96
2021/11/30 01:52:46;;;;;;;8.35;2.53;;;;;;;13.12;64.84;100508.53;5036051;28;20060;-95
2021/11/30 01:55:12;;;;;;;3.63;2.00;;;;;;;13.08;65.45;100514.03;5017780;28;20034;-96
2021/11/30 01:57:38;;;;;;;5.85;2.88;;;;;;;13.15;64.73;100503.00;5015257;28;20369;-95
2021/11/30 02:00:05;;;;;;;7.95;2.97;;;;;;;13.14;64.96;100503.97;5015771;28;20080;-94
2021/11/30 02:02:30;;;;;;;5.13;3.08;;;;;;;12.88;65.50;100489.19;5015886;28;20018;-95
2021/11/30 02:04:56;;;;;;;4.60;3.00;;;;;;;13.08;65.55;100492.09;5015643;28;20033;-94
2021/11/30 02:07:21;;;;;;;8.75;3.38;;;;;;;13.25;65.04;100482.88;5015950;28;20065;-95
2021/11/30 02:09:47;;;;;;;8.02;3.53;;;;;;;13.29;64.93;100492.25;5017906;28;20033;-94
2021/11/30 02:12:12;;;;;;;8.90;3.47;;;;;;;13.13;65.17;100497.00;5014823;28;20030;-94
2021/11/30 02:14:39;;;;;;;6.53;3.10;;;;;;;12.96;65.70;100504.44;5014704;28;20116;-95
2021/11/30 02:17:08;;;;;;;7.35;2.65;;;;;;;12.91;65.48;100503.94;5014310;28;20088;-96
2021/11/30 02:19:42;;;;;;;4.15;2.83;;;;;;;13.22;65.14;100512.13;5014330;28;20026;-96
2021/11/30 02:22:11;;;;;;;4.65;2.53;;;;;;;13.26;65.05;100506.50;5014679;28;20018;-95
2021/11/30 02:24:37;;;;;;;5.57;2.58;;;;;;;13.19;65.02;100510.56;5018385;28;20475;-95
2021/11/30 02:27:02;;;;;;;4.63;2.47;;;;;;;13.28;65.17;100506.38;5016811;28;20040;-93
2021/11/30 02:29:28;;;;;;;10.07;2.88;;;;;;;13.18;65.52;100502.78;5015002;28;20061;-94
2021/11/30 02:31:53;;;;;;;6.50;2.45;;;;;;;13.17;65.54;100487.91;5015121;28;20028;-95
2021/11/30 02:34:18;;;;;;;9.27;3.58;;;;;;;13.26;64.96;100489.84;5014740;28;20423;-94
2021/11/30 02:39:19;;;;;;;6.95;2.42;;;;;;;13.44;64.66;100485.78;5015227;28;20041;-95
2021/11/30 02:41:45;;;;;;;8.43;3.25;;;;;;;13.12;65.76;100498.81;5016345;28;20030;-96
2021/11/30 02:44:14;;;;;;;6.55;2.95;;;;;;;13.27;64.83;100489.72;5014598;28;20161;-95
2021/11/30 02:46:47;;;;;;;6.90;2.15;;;;;;;13.40;64.72;100484.34;5014716;28;20025;-95
2021/11/30 02:49:19;;;;;;;3.08;2.15;;;;;;;13.26;65.33;100479.28;5014279;28;20041;-95
2021/11/30 02:51:48;;;;;;;6.18;1.98;;;;;;;13.28;64.76;100478.19;5015777;28;20037;-96
2021/11/30 02:54:16;;;;;;;4.63;1.80;;;;;;;13.24;64.85;100466.22;5015191;28;20081;-94
2021/11/30 02:56:50;;;;;;;4.72;1.65;;;;;;;13.26;65.00;100479.28;5030455;28;20036;-93
2021/11/30 02:59:16;;;;;;;5.30;2.80;;;;;;;13.15;65.54;100485.41;5034471;28;20080;-94
2021/11/30 03:01:50;;;;;;;5.22;2.05;;;;;;;13.27;65.19;100479.19;5033992;28;20048;-93
2021/11/30 03:04:16;;;;;;;4.85;2.08;;;;;;;13.47;64.35;100479.44;5035942;28;20040;-93
2021/11/30 03:06:41;;;;;;;4.03;1.67;;;;;;;13.24;65.10;100473.28;5034647;28;20021;-91
2021/11/30 03:09:08;;;;;;;4.07;1.75;;;;;;;13.23;65.37;100476.88;5036003;28;20056;-95
2021/11/30 03:11:34;;;;;;;3.30;1.95;;;;;;;13.46;64.48;100468.03;5018216;28;20034;-95
2021/11/30 03:14:00;;;;;;;8.05;2.15;;;;;;;13.39;65.09;100469.50;5018819;28;20045;-95
2021/11/30 03:16:25;;;;;;;6.95;2.45;;;;;;;13.39;65.23;100458.09;5017451;28;20515;-95
2021/11/30 03:18:51;;;;;;;8.15;2.67;;;;;;;13.41;64.75;100464.09;5055801;23;20041;-93
2021/11/30 03:21:16;;;;;;;4.57;2.30;;;;;;;13.53;64.57;100459.66;5033953;28;20025;-92
2021/11/30 03:23:42;;;;;;;6.43;2.20;;;;;;;13.39;64.90;100461.59;5033089;28;20025;-92
2021/11/30 03:26:09;;;;;;;4.30;2.10;;;;;;;13.42;65.22;100458.69;5033298;28;20033;-93
2021/11/30 03:28:34;;;;;;;4.03;1.60;;;;;;;13.48;64.46;100460.00;5033682;28;20075;-93
2021/11/30 03:31:07;;;;;;;3.60;1.55;;;;;;;13.36;65.20;100448.63;5033695;28;20033;-92
2021/11/30 03:36:19;;;;;;;8.07;2.10;;;;;;;13.42;65.51;100439.41;5033776;28;20032;-92
2021/11/30 03:38:45;;;;;;;4.82;2.08;;;;;;;13.45;65.29;100447.91;5034332;28;20029;-94
2021/11/30 03:41:13;;;;;;;6.70;2.40;;;;;;;13.35;65.69;100443.47;5033065;28;20112;-92
2021/11/30 03:43:39;;;;;;;4.03;1.73;;;;;;;13.59;65.25;100454.72;5033024;28;20124;-92
2021/11/30 03:46:05;;;;;;;6.45;2.13;;;;;;;13.43;65.43;100447.19;5032890;28;20064;-92
2021/11/30 03:48:32;;;;;;;9.32;2.40;;;;;;;13.33;65.94;100445.38;5033179;28;20029;-93
2021/11/30 03:50:57;;;;;;;5.70;2.22;;;;;;;13.42;66.15;100437.59;5033299;28;20048;-92
2021/11/30 03:53:23;;;;;;;3.80;1.80;;;;;;;13.43;65.57;100431.38;5033178;28;20029;-93
2021/11/30 03:55:49;;;;;;;4.72;2.17;;;;;;;13.38;65.90;100446.69;5032652;28;20075;-92
2021/11/30 03:58:14;;;;;;;4.80;2.00;;;;;;;13.44;65.89;100446.22;5033545;28;20087;-93
2021/11/30 04:00:40;;;;;;;5.93;2.08;;;;;;;13.58;65.63;100453.03;5035346;28;20064;-93
2021/11/30 04:03:06;;;;;;;5.90;2.20;;;;;;;13.49;66.13;100451.16;5033565;28;20029;-93
2021/11/30 04:05:32;;;;;;;8.82;2.60;;;;;;;13.44;65.82;100448.84;5033561;28;20470;-91
2021/11/30 04:07:57;;;;;;;6.40;2.63;;;;;;;13.56;65.41;100443.56;5031731;28;20029;-92
2021/11/30 04:10:23;;;;;;;6.03;2.53;;;;;;;13.55;65.68;100444.53;5032450;28;20032;-93
2021/11/30 04:12:49;;;;;;;5.00;2.67;;;;;;;13.11;67.19;100439.13;5032318;28;20060;-93
2021/11/30 04:15:15;;;;;;;5.55;3.33;;;;;;;13.44;66.43;100427.75;5032695;28;20095;-91
2021/11/30 04:17:41;;;;;;;5.20;3.40;;;;;;;13.53;66.13;100438.56;5033423;28;20510;-91
2021/11/30 04:20:10;;;;;;;10.30;3.28;;;;;;;13.75;65.92;100433.22;5032158;28;20032;-91
2021/11/30 04:22:36;;;;;;;10.70;4.18;;;;;;;13.47;66.31;100442.53;5032131;28;20034;-92
2021/11/30 04:25:02;;;;;;;8.45;4.15;;;;;;;13.58;65.71;100434.56;5032036;28;20040;-92
2021/11/30 04:27:28;;;;;;;8.07;4.50;;;;;;;13.61;65.90;100444.06;5032372;28;20025;-92
2021/11/30 04:29:53;;;;;;;7.32;5.35;;;;;;;13.41;66.87;100435.09;5032446;28;20176;-92
2021/11/30 04:32:19;;;;;;;7.72;4.85;;;;;;;13.38;66.85;100433.50;5031954;28;20417;-92
2021/11/30 04:34:44;;;;;;;8.13;4.38;;;;;;;13.70;65.90;100432.75;5031920;28;20045;-92
2021/11/30 04:37:09;;;;;;;6.93;4.63;;;;;;;13.62;66.15;100438.63;5031948;28;20025;-92
2021/11/30 04:39:35;;;;;;;10.38;5.53;;;;;;;13.40;67.25;100441.31;5031426;28;20030;-92
2021/11/30 04:42:02;;;;;;;12.90;6.13;;;;;;;13.61;66.51;100436.13;5031691;28;20068;-92
2021/11/30 04:44:30;;;;;;;10.57;6.57;;;;;;;13.54;66.75;100434.94;5031941;28;20034;-92
2021/11/30 04:47:06;;;;;;;11.68;6.80;;;;;;;13.61;66.55;100422.94;5031983;28;20422;-93
2021/11/30 04:51:59;;;;;;;11.27;7.25;;;;;;;13.66;66.86;100418.13;5032152;28;20455;-92
2021/11/30 04:54:25;;;;;;;12.52;6.65;;;;;;;13.55;67.27;100426.09;5031464;28;20029;-92
2021/11/30 04:56:52;;;;;;;10.15;5.53;;;;;;;13.57;67.53;100429.44;5031808;28;20478;-93
2021/11/30 04:59:19;;;;;;;13.93;4.93;;;;;;;13.51;67.68;100422.84;5031849;28;20460;-93
2021/11/30 05:01:44;;;;;;;8.93;4.35;;;;;;;13.51;68.07;100430.75;5031600;28;20052;-92
2021/11/30 05:04:10;;;;;;;10.57;3.88;;;;;;;13.36;68.49;100424.88;5031748;28;20036;-91
2021/11/30 05:06:37;;;;;;;5.88;3.55;;;;;;;13.72;67.09;100422.06;5031821;28;20037;-91
2021/11/30 05:09:04;;;;;;;7.22;3.33;;;;;;;13.70;67.52;100409.00;5031870;28;20030;-91
2021/11/30 05:11:30;;;;;;;11.68;3.72;;;;;;;13.53;67.89;100417.44;5031455;28;20095;-92
2021/11/30 05:13:55;;;;;;;11.45;4.00;;;;;;;13.32;68.78;100425.25;5032146;28;20063;-91
2021/11/30 05:16:21;;;;;;;9.73;4.00;;;;;;;13.60;67.92;100418.63;5032889;28;20493;-94
2021/11/30 05:18:46;;;;;;;6.78;4.07;;;;;;;13.48;67.74;100405.44;5031553;28;20079;-91
2021/11/30 05:21:12;;;;;;;8.52;4.25;;;;;;;13.70;67.77;100406.34;5031688;28;20029;-94
2021/11/30 05:23:40;;;;;;;12.20;3.75;;;;;;;13.85;66.97;100407.75;5032009;28;20116;-91
2021/11/30 05:26:06;;;;;;;11.32;2.88;;;;;;;13.88;67.07;100394.31;5034057;28;20168;-93
2021/11/30 05:28:35;;;;;;;11.43;3.80;;;;;;;13.87;67.03;100395.25;5034910;28;20495;-91
2021/11/30 05:31:06;;;;;;;8.70;2.60;;;;;;;13.49;67.91;100396.59;5035119;28;20037;-92
2021/11/30 05:33:32;;;;;;;5.45;2.55;;;;;;;13.69;67.53;100394.13;5035244;28;20493;-91
2021/11/30 05:35:58;;;;;;;5.80;2.38;;;;;;;13.56;68.42;100394.28;5035262;28;20029;-90
2021/11/30 05:38:25;;;;;;;9.88;2.72;;;;;;;13.91;66.90;100395.84;5034782;28;20045;-91
2021/11/30 05:40:51;;;;;;;9.38;2.50;;;;;;;13.85;67.45;100391.09;5034638;28;20021;-91
2021/11/30 05:43:17;;;;;;;6.75;2.25;;;;;;;13.67;67.54;100398.69;5034704;28;20028;-91
2021/11/30 05:45:43;;;;;;;7.25;2.53;;;;;;;13.88;67.03;100391.69;5034725;28;20117;-91
2021/11/30 05:48:09;;;;;;;7.05;2.55;;;;;;;13.75;67.80;100383.09;5034989;28;20115;-91
2021/11/30 05:50:34;;;;;;;6.57;2.35;;;;;;;13.87;67.53;100399.72;5034840;28;20109;-91
2021/11/30 05:53:00;;;;;;;11.55;3.28;;;;;;;13.98;66.70;100398.81;5034711;28;20443;-91
2021/11/30 05:55:26;;;;;;;4.10;2.17;;;;;;;13.89;67.34;100403.91;5034367;28;20021;-92
2021/11/30 05:57:52;;;;;;;4.68;2.70;;;;;;;13.97;66.92;100399.81;5034546;28;20068;-92
2021/11/30 06:00:20;;;;;;;11.93;3.28;;;;;;;14.03;66.68;100394.00;5034566;28;20375;-91
2021/11/30 06:05:35;;;;;;;6.72;2.83;;;;;;;14.04;66.96;100412.38;4997120;28;20427;-93
2021/11/30 06:08:03;;;;;;;8.15;2.97;;;;;;;14.20;66.51;100414.56;5034461;28;20115;-92
2021/11/30 06:10:29;;;;;;;7.80;3.78;;;;;;;13.93;67.63;100403.66;5033956;28;20032;-92
2021/11/30 06:12:55;;;;;;;7.45;3.70;;;;;;;14.18;66.46;100403.31;5034218;28;20030;-93
2021/11/30 06:15:21;;;;;;;4.20;3.17;;;;;;;14.28;66.47;100419.22;5034234;28;20032;-93
2021/11/30 06:17:47;;;;;;;7.82;2.72;;;;;;;13.94;67.44;100405.31;5034550;28;20025;-94
2021/11/30 06:20:12;;;;;;;6.80;3.10;;;;;;;14.22;66.86;100425.84;5034435;28;20048;-93
2021/11/30 06:22:39;;;;;;;4.72;2.72;;;;;;;14.39;66.47;100426.25;5034366;28;20467;-92
2021/11/30 06:25:06;;;;;;;6.78;3.08;;;;;;;14.14;67.18;100427.44;5034344;28;20025;-93
2021/11/30 06:27:32;;;;;;;6.10;2.45;;;;;;;14.33;66.42;100426.75;5034494;28;20051;-93
2021/11/30 06:29:58;;;;;;;8.40;4.20;;;;;;;13.70;68.45;100414.28;5037431;28;20463;-96
2021/11/30 06:32:24;;;;;;;9.23;4.13;;;;;;;13.81;68.58;100408.97;5044252;28;20067;-96
2021/11/30 06:34:50;;;;;;;13.73;4.00;;;;;;;13.81;68.65;100401.06;5038980;28;20040;-92
2021/11/30 06:37:15;;;;;;;10.10;3.95;;;;;;;13.71;69.72;100394.03;5042699;28;20489;-92
2021/11/30 06:39:41;;;;;;;7.20;4.15;;;;;;;13.88;69.21;100385.53;5026040;28;20055;-91
2021/11/30 06:42:06;;;;;;;10.07;4.22;;;;;;;14.13;68.11;100388.81;5033035;28;20052;-89
2021/11/30 06:44:34;;;;;;;6.32;3.88;;;;;;;13.89;68.96;100381.94;5033482;28;20029;-92
2021/11/30 06:46:59;;;;;;;6.55;3.47;;;;;;;13.77;69.63;100377.69;5033548;28;20033;-89
2021/11/30 06:49:25;;;;;;;8.07;3.63;;;;;;;13.89;68.98;100387.22;5029817;28;20027;-93
2021/11/30 06:51:50;;;;;;;11.43;3.85;;;;;;;13.89;68.91;100387.22;5015028;28;20033;-90
2021/11/30 06:54:16;;;;;;;7.68;3.63;;;;;;;13.74;69.88;100381.38;5032239;28;20467;-92
2021/11/30 06:56:41;;;;;;;15.63;4.53;;;;;;;14.00;68.72;100386.34;5057052;23;20064;-94
2021/11/30 06:59:07;;;;;;;11.55;4.95;;;;;;;13.62;69.93;100387.66;5032453;28;20117;-92
2021/11/30 07:01:34;;;;;;;9.95;4.75;;;;;;;13.75;69.59;100391.00;5013474;28;20071;-92
2021/11/30 07:04:02;;;;;;;10.45;4.88;;;;;;;13.70;69.99;100382.59;5015782;28;20037;-93
2021/11/30 07:11:53;;;;;;;8.73;4.65;;;;;;;13.75;69.92;100396.28;5015084;28;20487;-94
2021/11/30 07:14:19;;;;;;;7.57;4.95;;;;;;;13.67;69.73;100396.06;5009300;28;20022;-92
2021/11/30 07:16:47;;;;;;;11.77;5.45;;;;;;;13.51;70.64;100400.88;4993810;28;20034;-92
2021/11/30 07:19:12;;;;;;;8.20;5.10;;;;;;;13.64;70.29;100398.94;5003692;28;20423;-93
2021/11/30 07:21:38;;;;;;;8.73;5.28;;;;;;;13.87;69.16;100394.44;5012576;28;20026;-94
2021/11/30 07:24:05;;;;;;;10.73;6.00;;;;;;;13.86;69.62;100398.88;5013163;28;20101;-92
2021/11/30 07:26:30;;;;;;;8.43;5.82;;;;;;;14.10;68.01;100389.91;5013050;28;20026;-93
2021/11/30 07:28:57;;;;;;;10.75;6.00;;;;;;;13.89;68.99;100387.22;5013397;28;20045;-92
2021/11/30 07:31:22;;;;;;;10.90;6.30;;;;;;;14.06;68.39;100389.31;4994686;28;20019;-94
2021/11/30 07:33:48;;;;;;;11.70;6.97;;;;;;;14.04;68.47;100379.81;4994404;28;20022;-93
2021/11/30 07:36:16;;;;;;;11.52;6.03;;;;;;;13.87;69.33;100375.97;5012922;28;20029;-92
2021/11/30 07:38:43;;;;;;;8.25;6.57;;;;;;;14.05;68.20;100387.63;5011052;28;20037;-94
2021/11/30 07:41:10;;;;;;;10.40;6.05;;;;;;;13.88;69.23;100389.03;5016135;28;20121;-95
2021/11/30 07:43:36;;;;;;;8.55;5.43;;;;;;;14.07;68.42;100383.06;5029761;28;20033;-94
2021/11/30 07:46:02;;;;;;;10.80;5.78;;;;;;;13.83;69.23;100377.19;5030408;28;20037;-94
2021/11/30 07:48:28;;;;;;;9.20;5.97;;;;;;;14.14;68.37;100380.75;5025685;28;20026;-92
2021/11/30 07:50:56;;;;;;;10.65;5.97;;;;;;;14.00;68.53;100379.28;5011645;28;20026;-93
2021/11/30 07:53:22;;;;;;;13.95;6.75;;;;;;;14.14;68.21;100378.13;5028740;28;20042;-95
2021/11/30 07:55:48;;;;;;;8.40;6.03;;;;;;;14.08;68.37;100386.56;5026072;28;20025;-95
2021/11/30 07:58:13;;;;;;;12.15;6.22;;;;;;;14.02;68.89;100376.47;5020565;28;20026;-91
2021/11/30 08:00:39;;;;;;;10.45;6.13;;;;;;;14.24;68.11;100376.38;5007221;28;20057;-96
2021/11/30 08:03:04;;;;;;;11.23;6.00;;;;;;;14.11;68.38;100383.66;5002048;28;20072;-94
2021/11/30 08:05:30;;;;;;;11.57;6.30;;;;;;;14.09;68.47;100377.66;4982948;28;20026;-95
2021/11/30 08:07:55;;;;;;;8.60;5.90;;;;;;;14.16;68.53;100392.03;5051158;23;20064;-95
2021/11/30 08:10:23;;;;;;;9.23;5.20;;;;;;;13.78;69.20;100363.50;5037670;23;20052;-96
2021/11/30 08:12:48;;;;;;;12.27;5.88;;;;;;;13.94;69.12;100369.22;5038527;28;20032;-95
2021/11/30 08:15:16;;;;;;;13.60;6.88;;;;;;;14.27;68.27;100380.56;5017459;28;20030;-95
2021/11/30 08:17:41;;;;;;;12.52;7.63;;;;;;;14.09;69.05;100401.41;5003913;28;20038;-96
2021/11/30 08:20:08;;;;;;;12.45;7.30;;;;;;;13.87;69.85;100387.34;5025118;28;20389;-95
2021/11/30 08:22:34;;;;;;;12.68;6.50;;;;;;;14.12;69.16;100381.84;5014600;28;20036;-94
2021/11/30 08:24:59;;;;;;;13.80;6.95;;;;;;;13.97;69.16;100384.78;5014564;28;20040;-94
2021/11/30 08:27:25;;;;;;;11.13;7.05;;;;;;;14.23;68.28;100382.63;5021502;28;20033;-93
2021/11/30 08:29:51;;;;;;;14.57;7.78;;;;;;;14.11;69.23;100383.66;5017657;28;20457;-96
2021/11/30 08:32:21;;;;;;;13.32;7.53;;;;;;;14.38;68.31;100392.88;5021797;28;20026;-96
2021/11/30 08:34:48;;;;;;;14.20;8.23;;;;;;;14.13;69.28;100389.63;5022562;28;20038;-95
2021/11/30 08:37:13;;;;;;;13.68;7.32;;;;;;;14.40;68.15;100398.88;5009547;28;20049;-94
2021/11/30 08:42:16;;;;;;;13.50;7.03;;;;;;;13.94;69.84;100410.59;5176177;23;20045;-94
2021/11/30 08:44:42;;;;;;;17.05;8.93;;;;;;;14.26;68.84;100413.22;5016503;28;20105;-94
2021/11/30 08:47:11;;;;;;;16.98;8.02;;;;;;;14.44;68.68;100413.50;5004448;28;20121;-93
2021/11/30 08:49:37;;;;;;;16.15;8.73;;;;;;;14.23;68.49;100405.56;4994308;28;20034;-93
2021/11/30 08:52:04;;;;;;;15.85;8.48;;;;;;;14.44;68.61;100409.03;4993073;28;20041;-93
2021/11/30 08:54:30;;;;;;;12.30;7.75;;;;;;;14.15;69.03;100398.25;5011937;28;20105;-93
2021/11/30 08:56:58;;;;;;;14.95;7.93;;;;;;;14.42;68.82;100397.78;5011853;28;20101;-94
2021/11/30 08:59:24;;;;;;;18.00;8.93;;;;;;;14.08;69.79;100397.13;5012692;28;20492;-93
2021/11/30 09:01:50;;;;;;;15.80;7.47;;;;;;;14.42;68.61;100391.66;5015625;28;20105;-95
2021/11/30 09:04:15;;;;;;;16.27;7.57;;;;;;;14.35;68.67;100380.75;5015576;28;20026;-96
2021/11/30 09:06:41;;;;;;;16.48;8.35;;;;;;;14.31;69.01;100389.91;5003027;28;20030;-95
2021/11/30 09:09:08;;;;;;;22.10;8.52;;;;;;;14.26;69.10;100390.28;5009572;28;20037;-94
2021/11/30 09:11:35;;;;;;;13.10;9.30;;;;;;;14.15;69.36;100392.97;5014524;28;20037;-94
2021/11/30 09:14:00;;;;;;;16.92;9.00;;;;;;;14.49;68.55;100379.59;5016676;28;20407;-94
2021/11/30 09:16:25;;;;;;;12.20;8.52;;;;;;;14.72;67.69;100397.97;5019685;28;20122;-91
2021/11/30 09:18:52;;;;;;;11.95;8.85;;;;;;;14.52;68.32;100391.72;5018587;28;20033;-91
2021/11/30 09:21:17;;;;;;;16.60;9.00;;;;;;;14.43;68.75;100386.22;5014953;28;20356;-94
2021/11/30 09:23:44;;;;;;;14.68;8.02;;;;;;;14.04;69.97;100379.81;5013471;28;20033;-92
2021/11/30 09:26:10;;;;;;;16.95;8.45;;;;;;;14.51;68.49;100382.09;5015929;28;20422;-92
2021/11/30 09:28:35;;;;;;;12.85;7.78;;;;;;;14.46;68.60;100380.69;5015161;28;20034;-91
2021/11/30 09:31:01;;;;;;;10.10;7.20;;;;;;;14.64;67.93;100372.19;5013660;28;20041;-93
2021/11/30 09:33:26;;;;;;;26.77;8.48;;;;;;;14.50;68.34;100368.06;4997256;28;20057;-92
2021/11/30 09:35:52;;;;;;;11.98;6.93;;;;;;;14.27;69.05;100365.53;5001091;28;20585;-96
2021/11/30 09:38:17;;;;;;;12.95;7.47;;;;;;;14.08;69.97;100362.78;5013408;28;20034;-95
2021/11/30 09:40:42;;;;;;;19.33;7.70;;;;;;;14.27;69.15;100354.16;5000487;28;20030;-92
2021/11/30 09:43:08;;;;;;;11.85;6.07;;;;;;;14.36;68.89;100365.75;4998557;28;20027;-93
2021/11/30 09:45:38;;;;;;;16.02;6.43;;;;;;;14.59;68.39;100354.09;4996208;28;20026;-96
2021/11/30 09:48:04;;;;;;;9.43;5.60;;;;;;;14.84;67.40;100365.19;5007639;28;20023;-95
2021/11/30 09:50:29;;;;;;;11.73;5.60;;;;;;;14.76;67.62;100368.50;4999248;28;20053;-96
2021/11/30 09:52:56;;;;;;;9.88;5.07;;;;;;;14.75;67.74;100363.34;5007541;28;20120;-93
2021/11/30 09:55:24;;;;;;;14.38;4.32;;;;;;;14.71;67.55;100370.72;5014037;28;20112;-93
2021/11/30 09:57:51;;;;;;;7.40;4.55;;;;;;;14.59;68.27;100375.25;5014721;28;20026;-93
2021/11/30 10:00:18;;;;;;;6.50;3.75;;;;;;;14.82;67.28;100353.91;5014495;28;20109;-92
2021/11/30 10:02:43;;;;;;;10.98;4.65;;;;;;;14.66;67.51;100360.53;5013780;28;20026;-93
2021/11/30 10:05:09;;;;;;;6.45;4.20;;;;;;;14.65;68.13;100353.56;5013046;28;20044;-93
2021/11/30 10:07:38;;;;;;;11.85;5.18;;;;;;;14.65;68.08;100347.44;4995802;28;20088;-94
2021/11/30 10:10:12;;;;;;;10.95;5.32;;;;;;;14.84;67.44;100347.53;4996566;28;20026;-92
2021/11/30 10:12:37;;;;;;;12.77;6.20;;;;;;;15.05;66.66;100346.63;5014890;28;20041;-95
2021/11/30 10:15:08;;;;;;;12.35;5.47;;;;;;;14.29;69.48;100337.19;5024997;28;20010;-96
2021/11/30 10:17:35;;;;;;;10.43;5.80;;;;;;;14.84;67.77;100347.53;5026942;28;20033;-96
2021/11/30 10:20:11;;;;;;;17.00;6.82;;;;;;;14.85;67.63;100343.91;5006216;28;20210;-93
2021/11/30 10:22:36;;;;;;;9.80;5.32;;;;;;;14.90;67.70;100348.78;4994312;28;20019;-91
2021/11/30 10:25:12;;;;;;;12.20;5.05;;;;;;;15.00;67.30;100352.31;5011881;28;20470;-93
2021/11/30 10:27:47;;;;;;;8.77;4.75;;;;;;;15.27;66.33;100350.84;5014268;28;20030;-93
2021/11/30 10:30:19;;;;;;;7.53;4.20;;;;;;;15.36;66.20;100357.97;5005378;28;20037;-93
2021/11/30 10:32:46;;;;;;;10.65;4.13;;;;;;;15.25;66.41;100356.28;5010159;28;20036;-92
2021/11/30 10:35:13;;;;;;;6.10;3.20;;;;;;;15.52;66.08;100353.94;5010666;28;20040;-92
2021/11/30 10:37:41;;;;;;;9.80;3.35;;;;;;;15.20;66.86;100357.66;4994856;28;20037;-92
2021/11/30 10:40:12;;;;;;;8.35;2.45;;;;;;;15.21;66.95;100346.94;4998772;28;20030;-92
2021/11/30 10:42:50;;;;;;;4.90;2.05;;;;;;;15.21;66.33;100357.53;5014388;28;20030;-92
2021/11/30 10:45:29;;;;;;;7.70;1.58;;;;;;;15.10;67.26;100359.44;5013738;28;20028;-92
2021/11/30 10:48:07;;;;;;;3.30;1.75;;;;;;;14.97;67.33;100347.31;5009193;28;20029;-93
2021/11/30 10:50:42;;;;;;;5.53;1.52;;;;;;;15.08;67.46;100344.53;4993788;28;20518;-91
2021/11/30 10:53:23;;;;;;;4.88;1.63;;;;;;;15.20;67.15;100341.78;4976254;28;20460;-92
2021/11/30 10:55:56;;;;;;;6.35;1.92;;;;;;;15.33;66.42;100333.63;5005819;28;20031;-93
2021/11/30 10:58:26;;;;;;;6.35;2.13;;;;;;;15.44;66.00;100342.25;5002346;28;20091;-93
2021/11/30 11:00:53;;;;;;;5.95;1.95;;;;;;;15.26;66.67;100325.38;4998797;28;20060;-94
2021/11/30 11:03:23;;;;;;;5.63;2.47;;;;;;;15.24;66.40;100336.09;5009566;28;20018;-92
2021/11/30 11:08:49;;;;;;;8.63;3.00;;;;;;;15.14;66.80;100327.28;5015691;28;20036;-93
2021/11/30 11:11:25;;;;;;;2.95;1.83;;;;;;;15.25;66.55;100339.59;5015742;28;20047;-96
2021/11/30 11:13:52;;;;;;;6.03;2.00;;;;;;;15.15;67.67;100322.88;5015639;28;20090;-95
2021/11/30 11:16:20;;;;;;;6.13;2.28;;;;;;;15.16;67.67;100328.00;5016556;28;20037;-96
2021/11/30 11:18:48;;;;;;;4.35;2.17;;;;;;;14.91;68.03;100324.06;5017046;28;20030;-95
2021/11/30 11:21:42;;;;;;;7.05;2.22;;;;;;;15.15;67.63;100336.91;5017288;28;20476;-95
2021/11/30 11:24:07;;;;;;;7.47;2.00;;;;;;;15.04;67.93;100326.44;4994483;28;20037;-91
2021/11/30 11:26:43;;;;;;;7.25;1.88;;;;;;;15.29;67.48;100335.69;5002578;28;20037;-93
2021/11/30 11:29:18;;;;;;;11.45;2.90;;;;;;;15.10;67.60;100327.72;5015115;28;20030;-93
2021/11/30 11:31:49;;;;;;;6.40;2.05;;;;;;;15.54;66.97;100325.53;5004923;28;20034;-92
2021/11/30 11:34:17;;;;;;;5.00;1.88;;;;;;;15.41;67.38;100324.00;4995141;28;20081;-95
2021/11/30 11:36:45;;;;;;;3.20;1.65;;;;;;;15.63;66.10;100327.38;5007758;28;20032;-95
2021/11/30 11:39:14;;;;;;;7.70;1.80;;;;;;;15.44;66.93;100317.59;5020566;28;20105;-94
2021/11/30 11:41:40;;;;;;;6.72;1.90;;;;;;;15.10;68.23;100314.50;5017571;28;20094;-94
2021/11/30 11:44:05;;;;;;;6.55;2.03;;;;;;;15.11;67.69;100290.56;5002853;28;20038;-96
2021/11/30 11:46:36;;;;;;;4.53;2.03;;;;;;;15.20;67.92;100304.75;4998507;28;20041;-95
2021/11/30 11:49:05;;;;;;;7.25;2.30;;;;;;;15.38;67.13;100313.72;5013203;28;20475;-95
2021/11/30 11:51:45;;;;;;;10.15;3.00;;;;;;;15.39;67.49;100318.00;5014996;28;20399;-95